sensor_id;sensor_type;location;lat;lon;timestamp;pressure;altitude;pressure_sealevel;temperature;humidity
57616;BME280;43816;52.054;-9.494;2023-06-05T00:00:10;102013.69;;;32.55;22.47
57616;BME280;43816;52.054;-9.494;2023-06-05T00:00:21;102018.53;;;32.59;22.92
57616;BME280;43816;52.054;-9.494;2023-06-05T00:00:31;102014.28;;;32.57;22.51
57616;BME280;43816;52.054;-9.494;2023-06-05T00:00:41;102016.47;;;32.55;22.63
57616;BME280;43816;52.054;-9.494;2023-06-05T00:00:51;102028.81;;;32.59;22.57
57616;BME280;43816;52.054;-9.494;2023-06-05T00:01:02;102017.69;;;32.59;22.84
57616;BME280;43816;52.054;-9.494;2023-06-05T00:01:12;102013.06;;;32.53;22.47
57616;BME280;43816;52.054;-9.494;2023-06-05T00:01:23;102014.28;;;32.57;22.60
57616;BME280;43816;52.054;-9.494;2023-06-05T00:01:33;102018.13;;;32.56;22.51
57616;BME280;43816;52.054;-9.494;2023-06-05T00:01:43;102009.78;;;32.56;22.35
57616;BME280;43816;52.054;-9.494;2023-06-05T00:01:54;101998.34;;;32.45;22.37
57616;BME280;43816;52.054;-9.494;2023-06-05T00:02:04;102010.03;;;32.54;22.81
57616;BME280;43816;52.054;-9.494;2023-06-05T00:02:14;102002.25;;;32.44;22.68
57616;BME280;43816;52.054;-9.494;2023-06-05T00:02:25;102001.13;;;32.45;22.55
57616;BME280;43816;52.054;-9.494;2023-06-05T00:02:35;101996.03;;;32.42;22.41
57616;BME280;43816;52.054;-9.494;2023-06-05T00:02:45;102017.53;;;32.54;22.76
57616;BME280;43816;52.054;-9.494;2023-06-05T00:02:56;102007.72;;;32.51;22.67
57616;BME280;43816;52.054;-9.494;2023-06-05T00:03:06;102017.75;;;32.52;22.50
57616;BME280;43816;52.054;-9.494;2023-06-05T00:03:16;102015.84;;;32.53;22.73
57616;BME280;43816;52.054;-9.494;2023-06-05T00:03:27;102012.19;;;32.52;22.48
57616;BME280;43816;52.054;-9.494;2023-06-05T00:03:37;102011.81;;;32.49;22.73
57616;BME280;43816;52.054;-9.494;2023-06-05T00:03:47;102023.34;;;32.52;22.75
57616;BME280;43816;52.054;-9.494;2023-06-05T00:03:57;102010.97;;;32.48;22.43
57616;BME280;43816;52.054;-9.494;2023-06-05T00:04:08;102016.94;;;32.52;22.62
57616;BME280;43816;52.054;-9.494;2023-06-05T00:04:18;102030.38;;;32.55;22.74
57616;BME280;43816;52.054;-9.494;2023-06-05T00:04:28;102024.81;;;32.55;22.54
57616;BME280;43816;52.054;-9.494;2023-06-05T00:04:39;102018.22;;;32.49;22.43
57616;BME280;43816;52.054;-9.494;2023-06-05T00:04:49;102018.63;;;32.53;22.79
57616;BME280;43816;52.054;-9.494;2023-06-05T00:04:59;102021.66;;;32.51;22.70
57616;BME280;43816;52.054;-9.494;2023-06-05T00:05:10;102029.13;;;32.51;22.71
57616;BME280;43816;52.054;-9.494;2023-06-05T00:05:20;102009.50;;;32.45;22.92
57616;BME280;43816;52.054;-9.494;2023-06-05T00:05:30;102024.06;;;32.48;22.75
57616;BME280;43816;52.054;-9.494;2023-06-05T00:05:40;102005.25;;;32.43;22.74
57616;BME280;43816;52.054;-9.494;2023-06-05T00:05:51;102019.56;;;32.46;22.67
57616;BME280;43816;52.054;-9.494;2023-06-05T00:06:01;102024.66;;;32.50;22.73
57616;BME280;43816;52.054;-9.494;2023-06-05T00:06:11;102004.38;;;32.42;22.79
57616;BME280;43816;52.054;-9.494;2023-06-05T00:06:22;102022.13;;;32.48;22.47
57616;BME280;43816;52.054;-9.494;2023-06-05T00:06:32;102000.84;;;32.35;22.75
57616;BME280;43816;52.054;-9.494;2023-06-05T00:06:42;102016.16;;;32.44;22.74
57616;BME280;43816;52.054;-9.494;2023-06-05T00:06:53;102014.47;;;32.43;22.58
57616;BME280;43816;52.054;-9.494;2023-06-05T00:07:03;102021.75;;;32.44;22.49
57616;BME280;43816;52.054;-9.494;2023-06-05T00:07:13;102025.13;;;32.46;22.67
57616;BME280;43816;52.054;-9.494;2023-06-05T00:07:24;102016.63;;;32.41;22.64
57616;BME280;43816;52.054;-9.494;2023-06-05T00:07:35;102003.03;;;32.33;22.65
57616;BME280;43816;52.054;-9.494;2023-06-05T00:07:45;102017.47;;;32.42;22.83
57616;BME280;43816;52.054;-9.494;2023-06-05T00:07:55;102026.44;;;32.44;22.75
57616;BME280;43816;52.054;-9.494;2023-06-05T00:08:06;102020.25;;;32.42;22.62
57616;BME280;43816;52.054;-9.494;2023-06-05T00:08:16;102018.81;;;32.39;22.24
57616;BME280;43816;52.054;-9.494;2023-06-05T00:08:26;102010.91;;;32.36;22.92
57616;BME280;43816;52.054;-9.494;2023-06-05T00:08:36;102030.72;;;32.46;22.65
57616;BME280;43816;52.054;-9.494;2023-06-05T00:08:47;102020.50;;;32.40;22.73
57616;BME280;43816;52.054;-9.494;2023-06-05T00:08:57;102015.63;;;32.36;23.13
57616;BME280;43816;52.054;-9.494;2023-06-05T00:09:07;102014.94;;;32.40;22.85
57616;BME280;43816;52.054;-9.494;2023-06-05T00:09:18;102017.09;;;32.38;22.85
57616;BME280;43816;52.054;-9.494;2023-06-05T00:09:28;102023.88;;;32.42;22.57
57616;BME280;43816;52.054;-9.494;2023-06-05T00:09:38;102017.09;;;32.38;22.65
57616;BME280;43816;52.054;-9.494;2023-06-05T00:09:48;102023.88;;;32.42;22.52
57616;BME280;43816;52.054;-9.494;2023-06-05T00:09:59;102020.50;;;32.40;22.69
57616;BME280;43816;52.054;-9.494;2023-06-05T00:10:09;102032.88;;;32.44;22.65
57616;BME280;43816;52.054;-9.494;2023-06-05T00:10:20;102022.06;;;32.36;23.13
57616;BME280;43816;52.054;-9.494;2023-06-05T00:10:30;102018.81;;;32.39;22.91
57616;BME280;43816;52.054;-9.494;2023-06-05T00:10:40;102026.28;;;32.39;22.89
57616;BME280;43816;52.054;-9.494;2023-06-05T00:10:50;102017.19;;;32.32;22.64
57616;BME280;43816;52.054;-9.494;2023-06-05T00:11:01;102025.22;;;32.40;22.62
57616;BME280;43816;52.054;-9.494;2023-06-05T00:11:11;102022.66;;;32.38;22.52
57616;BME280;43816;52.054;-9.494;2023-06-05T00:11:21;102024.84;;;32.36;22.63
57616;BME280;43816;52.054;-9.494;2023-06-05T00:11:32;102014.16;;;32.33;22.77
57616;BME280;43816;52.054;-9.494;2023-06-05T00:11:42;102020.97;;;32.37;22.81
57616;BME280;43816;52.054;-9.494;2023-06-05T00:11:53;102021.41;;;32.34;22.86
57616;BME280;43816;52.054;-9.494;2023-06-05T00:12:03;102025.22;;;32.40;23.04
57616;BME280;43816;52.054;-9.494;2023-06-05T00:12:14;102029.94;;;32.39;22.56
57616;BME280;43816;52.054;-9.494;2023-06-05T00:12:24;102018.91;;;32.33;22.94
57616;BME280;43816;52.054;-9.494;2023-06-05T00:12:35;102012.91;;;32.29;22.88
57616;BME280;43816;52.054;-9.494;2023-06-05T00:12:45;102012.06;;;32.28;22.79
57616;BME280;43816;52.054;-9.494;2023-06-05T00:12:55;102029.31;;;32.37;22.47
57616;BME280;43816;52.054;-9.494;2023-06-05T00:13:06;102017.19;;;32.32;22.54
57616;BME280;43816;52.054;-9.494;2023-06-05T00:13:16;102015.47;;;32.31;22.83
57616;BME280;43816;52.054;-9.494;2023-06-05T00:13:26;102017.66;;;32.28;22.61
57616;BME280;43816;52.054;-9.494;2023-06-05T00:13:36;102002.75;;;32.23;22.84
57616;BME280;43816;52.054;-9.494;2023-06-05T00:13:47;102005.53;;;32.23;22.96
57616;BME280;43816;52.054;-9.494;2023-06-05T00:13:57;102024.06;;;32.29;22.94
57616;BME280;43816;52.054;-9.494;2023-06-05T00:14:08;102021.91;;;32.31;22.93
57616;BME280;43816;52.054;-9.494;2023-06-05T00:14:18;102011.69;;;32.25;22.90
57616;BME280;43816;52.054;-9.494;2023-06-05T00:14:28;102010.84;;;32.24;22.89
57616;BME280;43816;52.054;-9.494;2023-06-05T00:14:39;102000.66;;;32.18;23.13
57616;BME280;43816;52.054;-9.494;2023-06-05T00:14:49;102014.03;;;32.28;22.70
57616;BME280;43816;52.054;-9.494;2023-06-05T00:14:59;102013.66;;;32.24;22.94
57616;BME280;43816;52.054;-9.494;2023-06-05T00:15:10;102025.31;;;32.33;22.65
57616;BME280;43816;52.054;-9.494;2023-06-05T00:15:20;102011.69;;;32.25;22.82
57616;BME280;43816;52.054;-9.494;2023-06-05T00:15:30;102023.59;;;32.32;22.78
57616;BME280;43816;52.054;-9.494;2023-06-05T00:15:41;102028.31;;;32.32;22.79
57616;BME280;43816;52.054;-9.494;2023-06-05T00:15:51;102029.41;;;32.31;22.81
57616;BME280;43816;52.054;-9.494;2023-06-05T00:16:01;102029.63;;;32.29;22.92
57616;BME280;43816;52.054;-9.494;2023-06-05T00:16:12;102029.16;;;32.32;22.68
57616;BME280;43816;52.054;-9.494;2023-06-05T00:16:22;102025.78;;;32.30;22.63
57616;BME280;43816;52.054;-9.494;2023-06-05T00:16:32;101999.66;;;32.13;23.07
57616;BME280;43816;52.054;-9.494;2023-06-05T00:16:43;102019.44;;;32.23;22.65
57616;BME280;43816;52.054;-9.494;2023-06-05T00:16:53;102016.00;;;32.21;22.59
57616;BME280;43816;52.054;-9.494;2023-06-05T00:17:04;102026.59;;;32.31;22.83
57616;BME280;43816;52.054;-9.494;2023-06-05T00:17:14;102019.44;;;32.23;22.56
57616;BME280;43816;52.054;-9.494;2023-06-05T00:17:24;102016.66;;;32.23;22.69
57616;BME280;43816;52.054;-9.494;2023-06-05T00:17:35;102007.50;;;32.16;23.14
57616;BME280;43816;52.054;-9.494;2023-06-05T00:17:45;102009.22;;;32.17;22.86
57616;BME280;43816;52.054;-9.494;2023-06-05T00:17:55;101994.78;;;32.08;23.09
57616;BME280;43816;52.054;-9.494;2023-06-05T00:18:05;102013.31;;;32.14;22.59
57616;BME280;43816;52.054;-9.494;2023-06-05T00:18:16;102016.50;;;32.18;23.09
57616;BME280;43816;52.054;-9.494;2023-06-05T00:18:26;102024.53;;;32.26;22.91
57616;BME280;43816;52.054;-9.494;2023-06-05T00:18:36;102027.94;;;32.28;22.72
57616;BME280;43816;52.054;-9.494;2023-06-05T00:18:47;102019.06;;;32.19;23.08
57616;BME280;43816;52.054;-9.494;2023-06-05T00:18:57;102022.00;;;32.24;22.96
57616;BME280;43816;52.054;-9.494;2023-06-05T00:19:07;102026.31;;;32.20;22.82
57616;BME280;43816;52.054;-9.494;2023-06-05T00:19:18;102024.38;;;32.21;22.95
57616;BME280;43816;52.054;-9.494;2023-06-05T00:19:28;102025.47;;;32.20;22.96
57616;BME280;43816;52.054;-9.494;2023-06-05T00:19:39;102021.13;;;32.24;22.77
57616;BME280;43816;52.054;-9.494;2023-06-05T00:19:49;102025.47;;;32.20;22.72
57616;BME280;43816;52.054;-9.494;2023-06-05T00:19:59;102028.03;;;32.21;22.70
57616;BME280;43816;52.054;-9.494;2023-06-05T00:20:10;102013.09;;;32.16;22.52
57616;BME280;43816;52.054;-9.494;2023-06-05T00:20:20;102008.63;;;32.15;23.00
57616;BME280;43816;52.054;-9.494;2023-06-05T00:20:31;102017.34;;;32.18;22.78
57616;BME280;43816;52.054;-9.494;2023-06-05T00:20:41;102025.25;;;32.21;22.72
57616;BME280;43816;52.054;-9.494;2023-06-05T00:20:51;102011.84;;;32.12;22.83
57616;BME280;43816;52.054;-9.494;2023-06-05T00:21:01;102015.25;;;32.14;22.76
57616;BME280;43816;52.054;-9.494;2023-06-05T00:21:12;102011.84;;;32.12;22.90
57616;BME280;43816;52.054;-9.494;2023-06-05T00:21:23;102005.44;;;32.11;22.98
57616;BME280;43816;52.054;-9.494;2023-06-05T00:21:33;102015.47;;;32.12;22.83
57616;BME280;43816;52.054;-9.494;2023-06-05T00:21:43;102008.91;;;32.06;22.76
57616;BME280;43816;52.054;-9.494;2023-06-05T00:21:53;102017.44;;;32.12;22.51
57616;BME280;43816;52.054;-9.494;2023-06-05T00:22:04;102032.97;;;32.19;23.04
57616;BME280;43816;52.054;-9.494;2023-06-05T00:22:14;102029.31;;;32.19;22.76
57616;BME280;43816;52.054;-9.494;2023-06-05T00:22:28;102023.16;;;32.17;23.05
57616;BME280;43816;52.054;-9.494;2023-06-05T00:22:38;102013.56;;;32.13;22.91
57616;BME280;43816;52.054;-9.494;2023-06-05T00:22:49;102022.53;;;32.15;22.62
57616;BME280;43816;52.054;-9.494;2023-06-05T00:22:59;102008.69;;;32.08;22.99
57616;BME280;43816;52.054;-9.494;2023-06-05T00:23:09;102011.25;;;32.09;22.61
57616;BME280;43816;52.054;-9.494;2023-06-05T00:23:20;102027.00;;;32.16;22.98
57616;BME280;43816;52.054;-9.494;2023-06-05T00:23:30;102015.72;;;32.11;22.74
57616;BME280;43816;52.054;-9.494;2023-06-05T00:23:41;102019.13;;;32.13;22.84
57616;BME280;43816;52.054;-9.494;2023-06-05T00:23:51;102005.28;;;32.06;22.75
57616;BME280;43816;52.054;-9.494;2023-06-05T00:24:01;102030.28;;;32.13;23.01
57616;BME280;43816;52.054;-9.494;2023-06-05T00:24:12;102025.78;;;32.12;22.93
57616;BME280;43816;52.054;-9.494;2023-06-05T00:24:22;102030.88;;;32.15;22.85
57616;BME280;43816;52.054;-9.494;2023-06-05T00:24:32;102011.06;;;32.04;22.67
57616;BME280;43816;52.054;-9.494;2023-06-05T00:24:42;102016.63;;;32.04;22.65
57616;BME280;43816;52.054;-9.494;2023-06-05T00:24:53;102037.06;;;32.17;22.55
57616;BME280;43816;52.054;-9.494;2023-06-05T00:25:04;102026.38;;;32.14;22.65
57616;BME280;43816;52.054;-9.494;2023-06-05T00:25:14;102019.59;;;32.09;22.74
57616;BME280;43816;52.054;-9.494;2023-06-05T00:25:24;102018.97;;;32.07;22.96
57616;BME280;43816;52.054;-9.494;2023-06-05T00:25:35;102026.38;;;32.14;22.94
57616;BME280;43816;52.054;-9.494;2023-06-05T00:25:45;102017.47;;;32.05;22.43
57616;BME280;43816;52.054;-9.494;2023-06-05T00:25:57;102030.28;;;32.13;23.03
57616;BME280;43816;52.054;-9.494;2023-06-05T00:26:07;102032.78;;;32.14;22.59
57616;BME280;43816;52.054;-9.494;2023-06-05T00:26:18;102028.56;;;32.12;22.68
57616;BME280;43816;52.054;-9.494;2023-06-05T00:26:28;102016.63;;;32.04;22.70
57616;BME280;43816;52.054;-9.494;2023-06-05T00:26:38;102022.63;;;32.08;22.96
57616;BME280;43816;52.054;-9.494;2023-06-05T00:26:49;102022.63;;;32.08;22.80
57616;BME280;43816;52.054;-9.494;2023-06-05T00:26:59;102016.63;;;32.04;22.52
57616;BME280;43816;52.054;-9.494;2023-06-05T00:27:09;102009.81;;;32.00;23.01
57616;BME280;43816;52.054;-9.494;2023-06-05T00:27:19;102024.94;;;32.11;22.63
57616;BME280;43816;52.054;-9.494;2023-06-05T00:27:30;101999.38;;;31.96;22.61
57616;BME280;43816;52.054;-9.494;2023-06-05T00:27:40;102022.84;;;32.06;23.15
57616;BME280;43816;52.054;-9.494;2023-06-05T00:27:51;102022.63;;;32.08;23.20
57616;BME280;43816;52.054;-9.494;2023-06-05T00:28:01;102020.91;;;32.07;22.76
57616;BME280;43816;52.054;-9.494;2023-06-05T00:28:11;102018.97;;;32.07;22.83
57616;BME280;43816;52.054;-9.494;2023-06-05T00:28:22;102018.13;;;32.07;22.80
57616;BME280;43816;52.054;-9.494;2023-06-05T00:28:32;102025.63;;;32.06;22.68
57616;BME280;43816;52.054;-9.494;2023-06-05T00:28:42;102019.63;;;32.03;23.02
57616;BME280;43816;52.054;-9.494;2023-06-05T00:28:53;102010.25;;;31.97;22.89
57616;BME280;43816;52.054;-9.494;2023-06-05T00:29:03;102023.25;;;32.03;23.04
57616;BME280;43816;52.054;-9.494;2023-06-05T00:29:14;102004.69;;;31.97;23.01
57616;BME280;43816;52.054;-9.494;2023-06-05T00:29:24;102000.09;;;31.91;22.87
57616;BME280;43816;52.054;-9.494;2023-06-05T00:29:34;102024.34;;;32.02;22.68
57616;BME280;43816;52.054;-9.494;2023-06-05T00:29:45;102033.75;;;32.08;23.05
57616;BME280;43816;52.054;-9.494;2023-06-05T00:29:55;102025.81;;;32.05;23.01
57616;BME280;43816;52.054;-9.494;2023-06-05T00:30:07;102032.22;;;32.05;22.80
57616;BME280;43816;52.054;-9.494;2023-06-05T00:30:18;102023.50;;;32.02;22.84
57616;BME280;43816;52.054;-9.494;2023-06-05T00:30:28;102022.84;;;32.06;23.16
57616;BME280;43816;52.054;-9.494;2023-06-05T00:30:38;102009.66;;;31.95;23.05
57616;BME280;43816;52.054;-9.494;2023-06-05T00:30:49;102029.44;;;32.05;23.14
57616;BME280;43816;52.054;-9.494;2023-06-05T00:31:00;102009.03;;;31.93;23.17
57616;BME280;43816;52.054;-9.494;2023-06-05T00:31:10;102016.84;;;32.03;22.87
57616;BME280;43816;52.054;-9.494;2023-06-05T00:31:20;102015.16;;;32.02;22.73
57616;BME280;43816;52.054;-9.494;2023-06-05T00:31:31;102013.66;;;31.99;22.71
57616;BME280;43816;52.054;-9.494;2023-06-05T00:31:42;102016.94;;;31.96;22.88
57616;BME280;43816;52.054;-9.494;2023-06-05T00:31:53;102024.34;;;32.02;22.93
57616;BME280;43816;52.054;-9.494;2023-06-05T00:32:03;102028.22;;;32.01;22.54
57616;BME280;43816;52.054;-9.494;2023-06-05T00:32:14;102015.84;;;31.97;22.76
57616;BME280;43816;52.054;-9.494;2023-06-05T00:32:24;102012.44;;;31.95;23.03
57616;BME280;43816;52.054;-9.494;2023-06-05T00:32:34;102007.09;;;31.94;22.77
57616;BME280;43816;52.054;-9.494;2023-06-05T00:32:45;102016.28;;;31.94;23.11
57616;BME280;43816;52.054;-9.494;2023-06-05T00:32:56;102024.78;;;31.99;23.12
57616;BME280;43816;52.054;-9.494;2023-06-05T00:33:06;102017.53;;;31.98;23.11
57616;BME280;43816;52.054;-9.494;2023-06-05T00:33:16;102022.00;;;31.99;22.96
57616;BME280;43816;52.054;-9.494;2023-06-05T00:33:27;102007.31;;;31.92;22.77
57616;BME280;43816;52.054;-9.494;2023-06-05T00:33:37;101994.59;;;31.84;22.72
57616;BME280;43816;52.054;-9.494;2023-06-05T00:33:48;102006.94;;;31.88;22.80
57616;BME280;43816;52.054;-9.494;2023-06-05T00:33:59;102007.78;;;31.89;22.83
57616;BME280;43816;52.054;-9.494;2023-06-05T00:34:09;101999.28;;;31.84;22.87
57616;BME280;43816;52.054;-9.494;2023-06-05T00:34:19;102013.72;;;31.92;23.11
57616;BME280;43816;52.054;-9.494;2023-06-05T00:34:29;102008.66;;;31.89;22.70
57616;BME280;43816;52.054;-9.494;2023-06-05T00:34:40;102014.59;;;31.93;23.07
57616;BME280;43816;52.054;-9.494;2023-06-05T00:34:50;102016.28;;;31.94;22.95
57616;BME280;43816;52.054;-9.494;2023-06-05T00:35:01;102016.53;;;31.92;22.77
57616;BME280;43816;52.054;-9.494;2023-06-05T00:35:11;102003.94;;;31.90;23.08
57616;BME280;43816;52.054;-9.494;2023-06-05T00:35:21;102019.94;;;31.95;23.15
57616;BME280;43816;52.054;-9.494;2023-06-05T00:35:32;102015.84;;;31.97;22.94
57616;BME280;43816;52.054;-9.494;2023-06-05T00:35:42;102009.50;;;31.90;23.14
57616;BME280;43816;52.054;-9.494;2023-06-05T00:35:53;102013.50;;;31.94;23.10
57616;BME280;43816;52.054;-9.494;2023-06-05T00:36:03;102007.16;;;31.87;23.11
57616;BME280;43816;52.054;-9.494;2023-06-05T00:36:13;102015.69;;;31.92;22.94
57616;BME280;43816;52.054;-9.494;2023-06-05T00:36:23;102019.94;;;31.95;22.79
57616;BME280;43816;52.054;-9.494;2023-06-05T00:36:34;102018.00;;;31.95;23.19
57616;BME280;43816;52.054;-9.494;2023-06-05T00:36:44;102019.06;;;31.94;23.05
57616;BME280;43816;52.054;-9.494;2023-06-05T00:36:54;102020.19;;;31.93;23.03
57616;BME280;43816;52.054;-9.494;2023-06-05T00:37:05;102020.19;;;31.93;23.04
57616;BME280;43816;52.054;-9.494;2023-06-05T00:37:15;102020.19;;;31.93;22.98
57616;BME280;43816;52.054;-9.494;2023-06-05T00:37:25;102021.84;;;31.94;22.82
57616;BME280;43816;52.054;-9.494;2023-06-05T00:37:35;102012.50;;;31.88;23.05
57616;BME280;43816;52.054;-9.494;2023-06-05T00:37:46;102022.34;;;31.91;22.89
57616;BME280;43816;52.054;-9.494;2023-06-05T00:37:56;102018.91;;;31.89;22.83
57616;BME280;43816;52.054;-9.494;2023-06-05T00:38:07;102017.41;;;31.93;22.98
57616;BME280;43816;52.054;-9.494;2023-06-05T00:38:17;102019.56;;;31.91;22.89
57616;BME280;43816;52.054;-9.494;2023-06-05T00:38:27;102015.91;;;31.90;22.76
57616;BME280;43816;52.054;-9.494;2023-06-05T00:38:37;102011.03;;;31.86;23.08
57616;BME280;43816;52.054;-9.494;2023-06-05T00:38:49;101991.69;;;31.72;23.17
57616;BME280;43816;52.054;-9.494;2023-06-05T00:38:59;102008.97;;;31.81;22.86
57616;BME280;43816;52.054;-9.494;2023-06-05T00:39:10;102024.03;;;31.92;23.12
57616;BME280;43816;52.054;-9.494;2023-06-05T00:39:20;102016.59;;;31.86;22.72
57616;BME280;43816;52.054;-9.494;2023-06-05T00:39:30;102015.53;;;31.87;22.93
57616;BME280;43816;52.054;-9.494;2023-06-05T00:39:41;102020.63;;;31.90;22.42
57616;BME280;43816;52.054;-9.494;2023-06-05T00:39:51;102017.22;;;31.88;23.00
57616;BME280;43816;52.054;-9.494;2023-06-05T00:40:02;102008.72;;;31.83;22.69
57616;BME280;43816;52.054;-9.494;2023-06-05T00:40:12;102027.25;;;31.89;22.86
57616;BME280;43816;52.054;-9.494;2023-06-05T00:40:23;102027.91;;;31.91;23.08
57616;BME280;43816;52.054;-9.494;2023-06-05T00:40:33;102008.31;;;31.79;22.70
57616;BME280;43816;52.054;-9.494;2023-06-05T00:40:43;102018.06;;;31.88;23.19
57616;BME280;43816;52.054;-9.494;2023-06-05T00:40:54;102015.97;;;31.84;22.91
57616;BME280;43816;52.054;-9.494;2023-06-05T00:41:04;102014.06;;;31.84;23.07
57616;BME280;43816;52.054;-9.494;2023-06-05T00:41:14;102016.59;;;31.86;23.01
57616;BME280;43816;52.054;-9.494;2023-06-05T00:41:25;102021.53;;;31.84;22.76
57616;BME280;43816;52.054;-9.494;2023-06-05T00:41:36;102023.63;;;31.88;22.68
57616;BME280;43816;52.054;-9.494;2023-06-05T00:41:46;102009.78;;;31.82;22.85
57616;BME280;43816;52.054;-9.494;2023-06-05T00:41:57;102021.09;;;31.87;22.70
57616;BME280;43816;52.054;-9.494;2023-06-05T00:42:08;102000.91;;;31.73;22.82
57616;BME280;43816;52.054;-9.494;2023-06-05T00:42:18;102014.28;;;31.83;22.66
57616;BME280;43816;52.054;-9.494;2023-06-05T00:42:28;102006.25;;;31.75;22.95
57616;BME280;43816;52.054;-9.494;2023-06-05T00:42:39;102021.53;;;31.84;22.83
57616;BME280;43816;52.054;-9.494;2023-06-05T00:42:49;102024.31;;;31.84;22.95
57616;BME280;43816;52.054;-9.494;2023-06-05T00:42:59;102029.66;;;31.85;22.79
57616;BME280;43816;52.054;-9.494;2023-06-05T00:43:09;102024.94;;;31.86;22.78
57616;BME280;43816;52.054;-9.494;2023-06-05T00:43:20;102005.16;;;31.76;22.73
57616;BME280;43816;52.054;-9.494;2023-06-05T00:43:30;102009.63;;;31.77;22.61
57616;BME280;43816;52.054;-9.494;2023-06-05T00:43:40;102008.31;;;31.79;23.00
57616;BME280;43816;52.054;-9.494;2023-06-05T00:43:51;102003.69;;;31.73;23.02
57616;BME280;43816;52.054;-9.494;2023-06-05T00:44:01;102005.38;;;31.74;22.64
57616;BME280;43816;52.054;-9.494;2023-06-05T00:44:11;102007.94;;;31.76;22.96
57616;BME280;43816;52.054;-9.494;2023-06-05T00:44:22;101998.97;;;31.73;23.04
57616;BME280;43816;52.054;-9.494;2023-06-05T00:44:32;102005.38;;;31.74;22.70
57616;BME280;43816;52.054;-9.494;2023-06-05T00:44:42;102011.81;;;31.75;22.77
57616;BME280;43816;52.054;-9.494;2023-06-05T00:44:53;102022.88;;;31.81;23.06
57616;BME280;43816;52.054;-9.494;2023-06-05T00:45:03;102011.81;;;31.75;23.11
57616;BME280;43816;52.054;-9.494;2023-06-05T00:45:14;102021.16;;;31.80;22.75
57616;BME280;43816;52.054;-9.494;2023-06-05T00:45:24;102020.31;;;31.80;22.80
57616;BME280;43816;52.054;-9.494;2023-06-05T00:45:34;102010.72;;;31.76;22.91
57616;BME280;43816;52.054;-9.494;2023-06-05T00:45:45;102016.13;;;31.70;22.95
57616;BME280;43816;52.054;-9.494;2023-06-05T00:45:59;102018.59;;;31.79;23.16
57616;BME280;43816;52.054;-9.494;2023-06-05T00:46:10;102007.31;;;31.73;22.70
57616;BME280;43816;52.054;-9.494;2023-06-05T00:46:21;102011.16;;;31.72;22.82
57616;BME280;43816;52.054;-9.494;2023-06-05T00:46:31;102004.97;;;31.70;23.03
57616;BME280;43816;52.054;-9.494;2023-06-05T00:46:41;102014.81;;;31.73;22.95
57616;BME280;43816;52.054;-9.494;2023-06-05T00:46:52;102012.03;;;31.73;22.91
57616;BME280;43816;52.054;-9.494;2023-06-05T00:47:03;102013.94;;;31.72;23.16
57616;BME280;43816;52.054;-9.494;2023-06-05T00:47:15;102021.84;;;31.76;23.03
57616;BME280;43816;52.054;-9.494;2023-06-05T00:47:25;102020.78;;;31.77;22.82
57616;BME280;43816;52.054;-9.494;2023-06-05T00:47:37;102015.66;;;31.73;23.09
57616;BME280;43816;52.054;-9.494;2023-06-05T00:47:48;102016.50;;;31.74;22.76
57616;BME280;43816;52.054;-9.494;2023-06-05T00:47:58;102008.88;;;31.69;22.83
57616;BME280;43816;52.054;-9.494;2023-06-05T00:48:08;102015.03;;;31.71;22.89
57616;BME280;43816;52.054;-9.494;2023-06-05T00:48:19;102027.41;;;31.76;23.04
57616;BME280;43816;52.054;-9.494;2023-06-05T00:48:31;102019.50;;;31.72;23.15
57616;BME280;43816;52.054;-9.494;2023-06-05T00:48:42;102013.34;;;31.70;23.05
57616;BME280;43816;52.054;-9.494;2023-06-05T00:48:52;102017.38;;;31.75;22.96
57616;BME280;43816;52.054;-9.494;2023-06-05T00:49:03;102016.50;;;31.74;22.84
57616;BME280;43816;52.054;-9.494;2023-06-05T00:49:14;102017.81;;;31.71;22.75
57616;BME280;43816;52.054;-9.494;2023-06-05T00:49:25;102027.41;;;31.76;22.75
57616;BME280;43816;52.054;-9.494;2023-06-05T00:49:36;102009.31;;;31.66;23.03
57616;BME280;43816;52.054;-9.494;2023-06-05T00:49:47;102015.03;;;31.71;22.88
57616;BME280;43816;52.054;-9.494;2023-06-05T00:49:58;102011.00;;;31.67;23.00
57616;BME280;43816;52.054;-9.494;2023-06-05T00:50:09;102020.84;;;31.70;22.88
57616;BME280;43816;52.054;-9.494;2023-06-05T00:50:20;102016.34;;;31.69;22.65
57616;BME280;43816;52.054;-9.494;2023-06-05T00:50:32;102010.38;;;31.65;23.14
57616;BME280;43816;52.054;-9.494;2023-06-05T00:50:42;102010.56;;;31.70;22.89
57616;BME280;43816;52.054;-9.494;2023-06-05T00:50:53;102011.00;;;31.67;22.73
57616;BME280;43816;52.054;-9.494;2023-06-05T00:51:03;102013.16;;;31.65;22.74
57616;BME280;43816;52.054;-9.494;2023-06-05T00:51:14;101994.44;;;31.54;22.90
57616;BME280;43816;52.054;-9.494;2023-06-05T00:51:25;102017.22;;;31.69;23.14
57616;BME280;43816;52.054;-9.494;2023-06-05T00:51:35;102011.50;;;31.64;22.80
57616;BME280;43816;52.054;-9.494;2023-06-05T00:51:46;102015.09;;;31.65;22.85
57616;BME280;43816;52.054;-9.494;2023-06-05T00:51:57;102016.56;;;31.67;22.79
57616;BME280;43816;52.054;-9.494;2023-06-05T00:52:07;102014.66;;;31.68;23.06
57616;BME280;43816;52.054;-9.494;2023-06-05T00:52:18;102014.66;;;31.68;23.10
57616;BME280;43816;52.054;-9.494;2023-06-05T00:52:29;101986.56;;;31.51;23.25
57616;BME280;43816;52.054;-9.494;2023-06-05T00:52:41;102017.44;;;31.68;23.11
57616;BME280;43816;52.054;-9.494;2023-06-05T00:52:52;102011.50;;;31.64;23.08
57616;BME280;43816;52.054;-9.494;2023-06-05T00:53:04;102009.78;;;31.63;22.88
57616;BME280;43816;52.054;-9.494;2023-06-05T00:53:16;102015.72;;;31.67;22.64
57616;BME280;43816;52.054;-9.494;2023-06-05T00:53:27;102016.78;;;31.66;23.10
57616;BME280;43816;52.054;-9.494;2023-06-05T00:53:40;102005.50;;;31.61;23.16
57616;BME280;43816;52.054;-9.494;2023-06-05T00:53:52;102023.22;;;31.66;23.12
57616;BME280;43816;52.054;-9.494;2023-06-05T00:54:03;102008.06;;;31.62;22.86
57616;BME280;43816;52.054;-9.494;2023-06-05T00:54:14;102014.28;;;31.64;22.78